createdAt,value
2018-08-28T00:02:17.292Z,85.20
2018-08-28T00:04:45.972Z,84.92
2018-08-28T00:07:15.094Z,84.97
2018-08-28T00:09:43.768Z,85.09
2018-08-28T00:12:12.459Z,84.44
2018-08-28T00:14:41.129Z,84.36
2018-08-28T00:17:09.890Z,84.76
2018-08-28T00:19:38.494Z,84.51
2018-08-28T00:22:07.188Z,84.49
2018-08-28T00:24:35.838Z,84.56
2018-08-28T00:27:04.460Z,84.82
2018-08-28T00:29:33.115Z,85.01
2018-08-28T00:32:01.952Z,84.59
2018-08-28T00:34:30.645Z,84.66
2018-08-28T00:36:59.303Z,85.10
2018-08-28T00:39:27.967Z,84.32
2018-08-28T00:41:56.622Z,84.53
2018-08-28T00:44:25.420Z,84.57
2018-08-28T00:46:54.083Z,84.66
2018-08-28T00:49:22.724Z,84.67
2018-08-28T00:51:51.418Z,85.14
2018-08-28T00:54:20.085Z,84.35
2018-08-28T00:56:48.720Z,84.69
2018-08-28T00:59:18.033Z,85.01
2018-08-28T01:01:46.628Z,85.70
2018-08-28T01:04:15.280Z,85.27
2018-08-28T01:06:43.935Z,84.99
2018-08-28T01:09:12.850Z,84.53
2018-08-28T01:11:41.523Z,85.02
2018-08-28T01:14:10.195Z,85.07
2018-08-28T01:16:38.865Z,85.01
2018-08-28T01:19:07.661Z,85.53
2018-08-28T01:21:36.274Z,85.33
2018-08-28T01:24:04.967Z,84.50
2018-08-28T01:26:33.675Z,84.88
2018-08-28T01:29:02.359Z,84.83
2018-08-28T01:31:31.044Z,84.79
2018-08-28T01:33:59.744Z,85.22
2018-08-28T01:36:28.423Z,84.89
2018-08-28T01:38:57.064Z,84.95
2018-08-28T01:41:25.788Z,85.34
2018-08-28T01:43:54.421Z,84.79
2018-08-28T01:46:23.039Z,85.31
2018-08-28T01:48:51.669Z,85.14
2018-08-28T01:51:20.599Z,85.10
2018-08-28T01:53:49.269Z,84.85
2018-08-28T01:56:17.919Z,85.23
2018-08-28T01:58:46.613Z,85.53
2018-08-28T02:01:15.257Z,85.68
2018-08-28T02:03:43.932Z,86.14
2018-08-28T02:06:12.735Z,86.22
2018-08-28T02:08:41.379Z,86.16
2018-08-28T02:11:10.012Z,86.68
2018-08-28T02:13:38.708Z,86.74
2018-08-28T02:16:07.349Z,86.40
2018-08-28T02:18:36.031Z,86.61
2018-08-28T02:21:04.675Z,86.83
2018-08-28T02:23:33.360Z,86.62
2018-08-28T02:26:02.009Z,86.62
2018-08-28T02:28:30.976Z,86.19
2018-08-28T02:30:59.622Z,86.78
2018-08-28T02:33:28.279Z,87.21
2018-08-28T02:35:56.894Z,87.15
2018-08-28T02:38:25.646Z,87.70
2018-08-28T02:40:54.323Z,88.55
2018-08-28T02:43:23.022Z,89.79
2018-08-28T02:45:51.699Z,89.58
2018-08-28T02:48:20.352Z,90.31
2018-08-28T02:50:49.371Z,89.56
2018-08-28T02:53:18.042Z,89.46
2018-08-28T02:55:46.929Z,89.46
2018-08-28T02:58:15.590Z,89.89
2018-08-28T03:00:44.209Z,90.20
2018-08-28T03:03:12.884Z,89.69
2018-08-28T03:05:41.532Z,89.67
2018-08-28T03:08:10.247Z,89.70
2018-08-28T03:10:38.985Z,89.84
2018-08-28T03:13:07.686Z,89.63
2018-08-28T03:15:36.442Z,89.80
2018-08-28T03:18:05.164Z,90.04
2018-08-28T03:20:34.388Z,89.44
2018-08-28T03:23:03.079Z,89.46
2018-08-28T03:25:31.766Z,89.69
2018-08-28T03:28:00.394Z,90.04
2018-08-28T03:30:29.056Z,89.42
2018-08-28T03:32:57.675Z,89.45
2018-08-28T03:35:26.343Z,89.16
2018-08-28T03:37:54.997Z,89.14
2018-08-28T03:40:23.683Z,89.22
2018-08-28T03:42:52.346Z,89.41
2018-08-28T03:45:21.082Z,89.51
2018-08-28T03:47:49.819Z,89.91
2018-08-28T03:50:18.486Z,90.42
2018-08-28T03:52:47.139Z,90.41
2018-08-28T03:55:15.812Z,90.30
2018-08-28T03:57:44.702Z,90.33
2018-08-28T04:00:13.409Z,90.32
2018-08-28T04:02:42.113Z,90.14
2018-08-28T04:05:10.964Z,90.67
2018-08-28T04:07:39.627Z,90.54
2018-08-28T04:10:08.364Z,90.92
2018-08-28T04:12:37.129Z,90.74
2018-08-28T04:15:06.091Z,91.14
2018-08-28T04:17:45.480Z,90.59
2018-08-28T04:20:14.146Z,90.43
2018-08-28T04:22:42.820Z,90.63
2018-08-28T04:25:11.489Z,90.79
2018-08-28T04:27:40.636Z,91.04
2018-08-28T04:30:09.915Z,90.48
2018-08-28T04:32:38.570Z,90.29
2018-08-28T04:35:07.227Z,90.02
2018-08-28T04:37:35.858Z,91.01
2018-08-28T04:40:05.234Z,90.80
2018-08-28T04:42:33.936Z,90.99
2018-08-28T04:45:02.880Z,91.32
2018-08-28T04:47:31.663Z,91.02
2018-08-28T04:50:00.261Z,90.90
2018-08-28T04:52:29.041Z,90.58
2018-08-28T04:54:57.768Z,90.55
2018-08-28T04:57:26.420Z,91.05
2018-08-28T04:59:55.084Z,90.58
2018-08-28T05:02:26.868Z,90.45
2018-08-28T05:04:55.537Z,90.73
2018-08-28T05:07:24.245Z,90.08
2018-08-28T05:09:52.964Z,89.91
2018-08-28T05:12:21.718Z,89.75
2018-08-28T05:14:50.436Z,90.41
2018-08-28T05:17:19.128Z,90.13
2018-08-28T05:19:47.828Z,90.07
2018-08-28T05:22:16.698Z,90.71
2018-08-28T05:24:45.527Z,90.65
2018-08-28T05:27:14.556Z,89.96
2018-08-28T05:29:43.373Z,90.00
2018-08-28T05:32:11.880Z,89.84
2018-08-28T05:34:41.895Z,89.81
2018-08-28T05:37:11.690Z,89.42
2018-08-28T05:39:40.503Z,90.01
2018-08-28T05:42:10.093Z,89.97
2018-08-28T05:44:38.910Z,88.97
2018-08-28T05:47:07.565Z,89.00
2018-08-28T05:49:36.331Z,89.84
2018-08-28T05:52:05.007Z,88.84
2018-08-28T05:54:33.635Z,88.42
2018-08-28T05:57:02.332Z,88.75
2018-08-28T05:59:31.129Z,88.93
2018-08-28T06:01:59.827Z,88.57
2018-08-28T06:04:28.587Z,88.63
2018-08-28T06:06:57.306Z,88.56
2018-08-28T06:09:25.951Z,88.40
2018-08-28T06:11:54.672Z,88.25
2018-08-28T06:14:23.902Z,87.65
2018-08-28T06:16:52.569Z,87.20
2018-08-28T06:19:21.227Z,87.40
2018-08-28T06:21:49.944Z,87.04
2018-08-28T06:24:18.680Z,86.06
2018-08-28T06:26:47.421Z,85.01
2018-08-28T06:29:16.107Z,86.02
2018-08-28T06:31:44.731Z,84.69
2018-08-28T06:34:13.404Z,84.20
2018-08-28T06:36:42.060Z,84.03
2018-08-28T06:39:11.043Z,82.85
2018-08-28T06:41:40.116Z,82.49
2018-08-28T06:44:08.808Z,81.86
2018-08-28T06:46:37.443Z,80.55
2018-08-28T06:49:06.105Z,79.77
2018-08-28T06:51:35.379Z,79.58
2018-08-28T06:54:04.694Z,79.24
2018-08-28T06:56:33.335Z,78.75
2018-08-28T06:59:02.032Z,78.83
2018-08-28T07:01:30.692Z,79.03
2018-08-28T07:03:59.449Z,77.30
2018-08-28T07:06:28.108Z,76.97
2018-08-28T07:08:56.808Z,76.97
2018-08-28T07:11:25.472Z,76.61
2018-08-28T07:13:54.166Z,76.42
2018-08-28T07:16:22.849Z,75.65
2018-08-28T07:18:51.758Z,75.96
2018-08-28T07:21:20.233Z,75.78
2018-08-28T07:23:48.938Z,75.65
2018-08-28T07:26:17.684Z,75.28
2018-08-28T07:28:46.526Z,74.65
2018-08-28T07:31:15.201Z,73.65
2018-08-28T07:33:43.917Z,72.85
2018-08-28T07:36:12.634Z,72.58
2018-08-28T07:38:41.328Z,71.92
2018-08-28T07:41:10.032Z,71.35
2018-08-28T07:43:38.752Z,70.85
2018-08-28T07:46:07.438Z,70.37
2018-08-28T07:48:36.092Z,69.68
2018-08-28T07:51:04.798Z,70.17
2018-08-28T07:53:33.523Z,69.22
2018-08-28T07:56:02.180Z,68.96
2018-08-28T07:58:30.853Z,68.49
2018-08-28T08:00:59.520Z,67.34
2018-08-28T08:03:28.249Z,66.71
2018-08-28T08:05:56.935Z,66.54
2018-08-28T08:08:25.622Z,65.76
2018-08-28T08:10:54.512Z,64.46
2018-08-28T08:13:23.449Z,64.27
2018-08-28T08:15:52.119Z,64.22
2018-08-28T08:18:22.028Z,62.88
2018-08-28T08:20:50.759Z,63.52
2018-08-28T08:23:19.462Z,63.76
2018-08-28T08:25:48.444Z,63.36
2018-08-28T08:28:17.548Z,63.01
2018-08-28T08:30:46.131Z,61.94
2018-08-28T08:33:14.877Z,61.55
2018-08-28T08:35:43.744Z,60.16
2018-08-28T08:38:14.196Z,59.10
2018-08-28T08:40:43.070Z,58.90
2018-08-28T08:43:11.716Z,59.42
2018-08-28T08:45:40.429Z,56.80
2018-08-28T08:48:09.132Z,55.79
2018-08-28T08:50:37.844Z,54.70
2018-08-28T08:53:06.481Z,55.31
2018-08-28T08:55:35.175Z,56.91
2018-08-28T08:58:03.844Z,56.39
2018-08-28T09:00:32.509Z,56.98
2018-08-28T09:03:01.161Z,55.95
2018-08-28T09:05:29.842Z,54.05
2018-08-28T09:07:58.511Z,53.49
2018-08-28T09:10:27.173Z,53.38
2018-08-28T09:12:55.831Z,50.87
2018-08-28T09:15:24.521Z,51.13
2018-08-28T09:17:53.223Z,51.76
2018-08-28T09:20:21.873Z,51.77
2018-08-28T09:22:50.595Z,52.32
2018-08-28T09:25:19.239Z,53.41
2018-08-28T09:27:47.895Z,54.43
2018-08-28T09:30:16.720Z,53.33
2018-08-28T09:32:45.384Z,51.68
2018-08-28T09:35:14.033Z,50.58
2018-08-28T09:37:42.708Z,48.26
2018-08-28T09:40:11.356Z,47.99
2018-08-28T09:42:40.090Z,46.27
2018-08-28T09:45:08.812Z,46.32
2018-08-28T09:47:37.500Z,46.46
2018-08-28T09:50:06.374Z,45.49
2018-08-28T09:52:35.818Z,46.47
2018-08-28T09:55:04.484Z,46.24
2018-08-28T09:57:33.220Z,45.80
2018-08-28T10:00:01.888Z,45.04
2018-08-28T10:02:30.551Z,45.01
2018-08-28T10:04:59.252Z,45.70
2018-08-28T10:07:27.996Z,46.33
2018-08-28T10:09:56.661Z,46.10
2018-08-28T10:12:25.396Z,47.91
2018-08-28T10:14:54.276Z,46.79
2018-08-28T10:17:23.094Z,46.25
2018-08-28T10:19:51.733Z,46.67
2018-08-28T10:22:20.725Z,46.89
2018-08-28T10:24:49.489Z,46.97
2018-08-28T10:27:18.318Z,46.23
2018-08-28T10:29:47.097Z,43.83
2018-08-28T10:32:15.809Z,43.10
2018-08-28T10:34:44.525Z,43.19
2018-08-28T10:37:13.192Z,42.04
2018-08-28T10:39:42.339Z,42.18
2018-08-28T10:42:10.987Z,41.20
2018-08-28T10:44:39.637Z,40.04
2018-08-28T10:47:08.320Z,38.54
2018-08-28T10:49:37.028Z,38.06
2018-08-28T10:52:05.764Z,38.90
2018-08-28T10:54:34.440Z,39.97
2018-08-28T10:57:03.256Z,37.71
2018-08-28T10:59:32.033Z,36.39
2018-08-28T11:02:00.751Z,38.42
2018-08-28T11:04:29.651Z,40.52
2018-08-28T11:06:58.437Z,41.53
2018-08-28T11:09:27.144Z,42.40
2018-08-28T11:11:55.872Z,41.30
2018-08-28T11:14:24.540Z,41.62
2018-08-28T11:16:53.220Z,42.60
2018-08-28T11:19:21.976Z,41.47
2018-08-28T11:21:50.644Z,41.95
2018-08-28T11:24:19.306Z,42.12
2018-08-28T11:26:48.184Z,43.03
2018-08-28T11:29:16.925Z,41.89
2018-08-28T11:31:45.628Z,42.14
2018-08-28T11:34:14.331Z,42.21
2018-08-28T11:36:42.963Z,40.81
2018-08-28T11:39:11.722Z,41.37
2018-08-28T11:41:40.372Z,40.67
2018-08-28T11:44:09.036Z,40.91
2018-08-28T11:46:37.694Z,38.77
2018-08-28T11:49:06.368Z,38.67
2018-08-28T11:51:35.011Z,38.88
2018-08-28T11:54:03.671Z,39.53
2018-08-28T11:56:32.324Z,40.49
2018-08-28T11:59:01.019Z,40.93
2018-08-28T12:01:29.729Z,41.69
2018-08-28T12:03:58.411Z,41.21
2018-08-28T12:06:27.072Z,41.70
2018-08-28T12:08:55.742Z,41.91
2018-08-28T12:11:24.386Z,44.37
2018-08-28T12:13:53.168Z,43.30
2018-08-28T12:16:21.783Z,43.04
2018-08-28T12:18:50.495Z,45.04
2018-08-28T12:21:19.120Z,45.59
2018-08-28T12:23:47.780Z,46.52
2018-08-28T12:26:16.424Z,46.90
2018-08-28T12:28:45.119Z,47.52
2018-08-28T12:31:13.791Z,48.32
2018-08-28T12:33:42.399Z,48.60
2018-08-28T12:36:11.040Z,49.10
2018-08-28T12:38:39.685Z,49.58
2018-08-28T12:41:08.357Z,49.84
2018-08-28T12:43:37.112Z,50.35
2018-08-28T12:46:06.145Z,51.52
2018-08-28T12:48:34.792Z,51.30
2018-08-28T12:51:03.501Z,51.52
2018-08-28T12:53:32.182Z,51.96
2018-08-28T12:56:00.859Z,52.44
2018-08-28T12:58:29.512Z,53.22
2018-08-28T13:00:58.194Z,53.28
2018-08-28T13:03:26.825Z,53.83
2018-08-28T13:05:55.517Z,53.58
2018-08-28T13:08:24.240Z,53.89
2018-08-28T13:10:52.918Z,53.51
2018-08-28T13:13:21.575Z,54.15
2018-08-28T13:15:50.217Z,54.15
2018-08-28T13:18:18.867Z,54.27
2018-08-28T13:20:47.580Z,54.21
2018-08-28T13:23:16.252Z,54.83
2018-08-28T13:25:44.995Z,55.07
2018-08-28T13:28:13.565Z,55.44
2018-08-28T13:30:42.271Z,55.43
2018-08-28T13:33:11.223Z,55.70
2018-08-28T13:35:39.935Z,56.26
2018-08-28T13:38:08.550Z,57.63
2018-08-28T13:40:37.362Z,59.56
2018-08-28T13:43:06.203Z,62.31
2018-08-28T13:45:34.877Z,63.05
2018-08-28T13:48:03.597Z,60.82
2018-08-28T13:50:32.263Z,59.91
2018-08-28T13:53:00.924Z,59.94
2018-08-28T13:55:29.944Z,58.74
2018-08-28T13:57:58.624Z,57.95
2018-08-28T14:00:27.295Z,58.02
2018-08-28T14:02:55.940Z,56.57
2018-08-28T14:05:24.643Z,55.96
2018-08-28T14:07:53.303Z,55.44
2018-08-28T14:10:22.002Z,55.71
2018-08-28T14:12:50.693Z,54.28
2018-08-28T14:15:19.369Z,53.19
2018-08-28T14:17:48.080Z,54.05
2018-08-28T14:20:16.804Z,53.18
2018-08-28T14:22:45.528Z,53.21
2018-08-28T14:25:14.154Z,52.79
2018-08-28T14:27:42.903Z,51.20
2018-08-28T14:30:11.550Z,49.13
2018-08-28T14:32:40.189Z,49.88
2018-08-28T14:35:08.804Z,49.06
2018-08-28T14:37:37.476Z,49.50
2018-08-28T14:40:06.166Z,49.31
2018-08-28T14:42:34.855Z,48.97
2018-08-28T14:45:03.486Z,49.10
2018-08-28T14:47:32.156Z,49.11
2018-08-28T14:50:01.033Z,49.64
2018-08-28T14:52:29.616Z,48.60
2018-08-28T14:54:58.220Z,48.15
2018-08-28T14:57:26.859Z,48.52
2018-08-28T14:59:55.579Z,48.42
2018-08-28T15:02:24.304Z,48.59
2018-08-28T15:04:52.975Z,49.22
2018-08-28T15:07:21.647Z,49.22
2018-08-28T15:09:50.317Z,49.23
2018-08-28T15:12:19.687Z,49.96
2018-08-28T15:14:48.366Z,49.88
2018-08-28T15:17:17.101Z,49.59
2018-08-28T15:19:46.976Z,49.34
2018-08-28T15:22:15.624Z,49.97
2018-08-28T15:24:44.314Z,49.99
2018-08-28T15:27:13.054Z,49.77
2018-08-28T15:29:41.650Z,49.72
2018-08-28T15:32:10.332Z,50.00
2018-08-28T15:34:39.029Z,50.88
2018-08-28T15:37:07.693Z,50.54
2018-08-28T15:39:36.719Z,50.18
2018-08-28T15:42:05.569Z,50.23
2018-08-28T15:44:34.248Z,50.77
2018-08-28T15:47:04.045Z,50.61
2018-08-28T15:49:32.727Z,50.78
2018-08-28T15:52:01.541Z,50.63
2018-08-28T15:54:30.358Z,50.79
2018-08-28T15:56:59.915Z,49.89
2018-08-28T15:59:28.613Z,49.84
2018-08-28T16:01:58.721Z,50.77
2018-08-28T16:04:28.551Z,50.67
2018-08-28T16:06:57.988Z,50.54
2018-08-28T16:09:26.707Z,50.84
2018-08-28T16:11:57.164Z,50.80
2018-08-28T16:14:26.072Z,50.80
2018-08-28T16:16:55.499Z,51.67
2018-08-28T16:19:24.214Z,51.37
2018-08-28T16:21:54.738Z,51.16
2018-08-28T16:24:23.667Z,51.58
2018-08-28T16:26:53.097Z,52.34
2018-08-28T16:29:22.125Z,52.11
2018-08-28T16:31:52.042Z,53.06
2018-08-28T16:34:21.044Z,53.38
2018-08-28T16:36:49.811Z,53.86
2018-08-28T16:39:25.182Z,53.87
2018-08-28T16:41:53.855Z,54.21
2018-08-28T16:44:22.585Z,54.28
2018-08-28T16:46:51.352Z,54.38
2018-08-28T16:49:19.999Z,54.27
2018-08-28T16:51:48.663Z,54.92
2018-08-28T16:54:18.548Z,55.30
2018-08-28T16:56:47.229Z,55.24
2018-08-28T16:59:15.996Z,55.61
2018-08-28T17:01:44.832Z,55.46
2018-08-28T17:04:13.624Z,55.56
2018-08-28T17:06:42.300Z,55.76
2018-08-28T17:09:11.164Z,56.16
2018-08-28T17:11:39.833Z,56.63
2018-08-28T17:14:08.515Z,56.87
2018-08-28T17:16:37.234Z,56.96
2018-08-28T17:19:06.014Z,57.19
2018-08-28T17:21:34.650Z,57.35
2018-08-28T17:24:03.344Z,57.66
2018-08-28T17:26:32.038Z,57.65
2018-08-28T17:29:00.696Z,57.92
2018-08-28T17:31:29.684Z,57.67
2018-08-28T17:33:58.468Z,58.02
2018-08-28T17:36:27.166Z,58.31
2018-08-28T17:38:55.935Z,58.21
2018-08-28T17:41:24.643Z,57.79
2018-08-28T17:43:53.358Z,57.64
2018-08-28T17:46:21.991Z,57.20
2018-08-28T17:48:50.685Z,57.05
2018-08-28T17:51:19.337Z,57.58
2018-08-28T17:53:48.024Z,58.01
2018-08-28T17:56:16.693Z,57.83
2018-08-28T17:58:45.363Z,57.69
2018-08-28T18:01:14.179Z,59.02
2018-08-28T18:03:42.934Z,60.22
2018-08-28T18:06:11.605Z,60.06
2018-08-28T18:08:40.335Z,59.72
2018-08-28T18:11:08.983Z,59.69
2018-08-28T18:13:37.653Z,59.72
2018-08-28T18:16:06.345Z,59.42
2018-08-28T18:18:35.067Z,59.90
2018-08-28T18:21:03.753Z,60.19
2018-08-28T18:23:33.014Z,60.37
2018-08-28T18:26:01.815Z,60.66
2018-08-28T18:28:31.341Z,59.99
2018-08-28T18:31:00.091Z,60.27
2018-08-28T18:33:28.761Z,60.04
2018-08-28T18:35:57.873Z,60.18
2018-08-28T18:38:26.693Z,60.91
2018-08-28T18:40:55.566Z,60.54
2018-08-28T18:43:24.177Z,60.61
2018-08-28T18:45:52.875Z,60.66
2018-08-28T18:48:22.856Z,61.23
2018-08-28T18:50:51.934Z,61.17
2018-08-28T18:53:21.539Z,61.16
2018-08-28T18:55:50.261Z,61.14
2018-08-28T18:58:19.876Z,61.04
2018-08-28T19:00:48.616Z,60.93
2018-08-28T19:03:17.510Z,61.10
2018-08-28T19:05:46.250Z,61.40
2018-08-28T19:08:15.266Z,61.60
2018-08-28T19:10:44.136Z,61.17
2018-08-28T19:13:12.859Z,61.55
2018-08-28T19:15:41.760Z,61.15
2018-08-28T19:18:10.443Z,61.32
2018-08-28T19:20:39.252Z,61.87
2018-08-28T19:23:07.934Z,61.57
2018-08-28T19:25:36.729Z,61.94
2018-08-28T19:28:05.462Z,62.20
2018-08-28T19:30:34.148Z,62.19
2018-08-28T19:33:02.913Z,62.32
2018-08-28T19:35:31.589Z,62.19
2018-08-28T19:38:00.256Z,62.16
2018-08-28T19:40:28.931Z,61.92
2018-08-28T19:42:57.639Z,61.83
2018-08-28T19:45:26.349Z,61.81
2018-08-28T19:47:55.156Z,62.13
2018-08-28T19:50:23.876Z,62.00
2018-08-28T19:52:52.560Z,62.23
2018-08-28T19:55:21.566Z,62.74
2018-08-28T19:57:50.539Z,62.50
2018-08-28T20:00:19.559Z,62.34
2018-08-28T20:02:48.374Z,61.71
2018-08-28T20:05:17.105Z,61.23
2018-08-28T20:07:45.799Z,60.99
2018-08-28T20:10:16.147Z,61.54
2018-08-28T20:12:46.221Z,61.72
2018-08-28T20:15:14.895Z,61.84
2018-08-28T20:17:43.717Z,61.68
2018-08-28T20:20:12.489Z,62.23
2018-08-28T20:22:41.308Z,62.60
2018-08-28T20:25:09.983Z,61.91
2018-08-28T20:27:38.608Z,62.14
2018-08-28T20:30:08.303Z,62.29
2018-08-28T20:32:36.900Z,62.66
2018-08-28T20:35:06.115Z,62.94
2018-08-28T20:37:35.231Z,63.26
2018-08-28T20:40:03.935Z,63.60
2018-08-28T20:42:32.696Z,63.56
2018-08-28T20:45:01.428Z,63.76
2018-08-28T20:47:30.097Z,64.70
2018-08-28T20:49:58.805Z,64.80
2018-08-28T20:52:27.503Z,65.32
2018-08-28T20:54:57.311Z,66.06
2018-08-28T20:57:27.040Z,66.49
2018-08-28T20:59:55.723Z,66.64
2018-08-28T21:02:24.533Z,66.57
2018-08-28T21:04:53.319Z,66.15
2018-08-28T21:07:22.302Z,65.76
2018-08-28T21:09:50.991Z,65.70
2018-08-28T21:12:19.862Z,65.58
2018-08-28T21:14:48.660Z,65.66
2018-08-28T21:17:17.320Z,65.99
2018-08-28T21:19:45.996Z,65.43
2018-08-28T21:22:14.650Z,65.76
2018-08-28T21:24:43.346Z,65.22
2018-08-28T21:27:12.701Z,65.07
2018-08-28T21:29:41.394Z,65.85
2018-08-28T21:32:10.275Z,66.00
2018-08-28T21:34:38.931Z,66.07
2018-08-28T21:37:07.595Z,66.53
2018-08-28T21:39:36.269Z,66.75
2018-08-28T21:42:05.341Z,67.41
2018-08-28T21:44:33.984Z,67.59
2018-08-28T21:47:02.687Z,68.21
2018-08-28T21:49:31.334Z,68.17
2018-08-28T21:52:00.060Z,68.54
2018-08-28T21:54:28.737Z,68.64
2018-08-28T21:56:57.413Z,68.38
2018-08-28T21:59:26.048Z,68.72
2018-08-28T22:01:54.681Z,69.21
2018-08-28T22:04:23.336Z,69.08
2018-08-28T22:06:57.363Z,69.24
2018-08-28T22:09:26.356Z,68.98
2018-08-28T22:11:55.011Z,69.10
2018-08-28T22:14:23.681Z,69.35
2018-08-28T22:16:52.411Z,69.55
2018-08-28T22:19:21.096Z,69.63
2018-08-28T22:21:49.822Z,70.68
2018-08-28T22:24:18.512Z,71.13
2018-08-28T22:26:47.180Z,71.52
2018-08-28T22:29:15.807Z,72.00
2018-08-28T22:31:44.564Z,72.38
2018-08-28T22:34:13.187Z,72.59
2018-08-28T22:36:41.836Z,73.15
2018-08-28T22:39:10.476Z,73.55
2018-08-28T22:41:39.624Z,73.03
2018-08-28T22:44:08.336Z,73.32
2018-08-28T22:46:37.023Z,73.33
2018-08-28T22:49:05.741Z,73.94
2018-08-28T22:51:34.467Z,74.01
2018-08-28T22:54:03.158Z,74.49
2018-08-28T22:56:31.852Z,73.88
2018-08-28T22:59:00.620Z,74.41
2018-08-28T23:01:29.313Z,74.55
2018-08-28T23:03:57.987Z,74.20
2018-08-28T23:06:26.643Z,74.18
2018-08-28T23:08:55.289Z,74.16
2018-08-28T23:11:24.478Z,74.50
2018-08-28T23:13:53.190Z,74.94
2018-08-28T23:16:22.324Z,74.92
2018-08-28T23:18:50.988Z,75.10
2018-08-28T23:21:19.665Z,74.52
2018-08-28T23:23:49.179Z,75.54
2018-08-28T23:26:17.828Z,75.52
2018-08-28T23:28:46.456Z,75.62
2018-08-28T23:31:15.208Z,75.85
2018-08-28T23:33:43.886Z,75.60
2018-08-28T23:36:12.652Z,74.96
2018-08-28T23:38:41.293Z,75.20
2018-08-28T23:41:09.965Z,75.97
2018-08-28T23:43:38.683Z,76.20
2018-08-28T23:46:07.368Z,76.94
2018-08-28T23:48:36.054Z,77.41
2018-08-28T23:51:04.757Z,77.64
2018-08-28T23:53:33.525Z,77.81
2018-08-28T23:56:02.207Z,78.18
2018-08-28T23:58:30.881Z,78.26
